Trelew/Rawson, Argentina
Current Conditions -  °F | °C
As of 10:00 PM on Saturday 22 Nov 2014 (Local Time) from SAVC Reporting Station
Clear Clear  
Wind Chill: 66°   Ceiling: Unl
Heat Index: 66°   Visibility: 6mi
Dew Point: 39°   Wind: 21mph
Humidity: 37%   Direction: 270°W
Pressure: 29.59"   Gusts: NA
Location:  43.2°S, 65.27°W
Report Text: SAVC 230100Z 27018KT CAVOK 19/04 Q1002
Loading
Personal Weather Stations






























Interactive Weather Map New forecast layout! Learn more

10-Day Weather Forecast

Advertisements
Track Severe Weather on mobile